Toledo, Arkansas
Current Conditions -  °F | °C
As of 9:53 AM on Thursday 23 Oct 2014 (Local Time) from KPBF Reporting Station
Clear Clear  
Wind Chill: 54°   Ceiling: Unl
Heat Index: 54°   Visibility: 10mi
Dew Point: 47°   Wind: 3mph
Humidity: 77%   Direction: 30°NNE
Pressure: 30.21"   Gusts: NA
Location:  33.947°N, 92.1633°W
Report Text: KPBF 231453Z AUTO 03003KT 10SM CLR 12/08 A3021 RMK AO2 SLP230 T01220083 53009
Loading
Personal Weather Stations






























Interactive Weather Map
Tropical Storm Tracking
New forecast layout! Learn more

10-Day Weather Forecast

Advertisements
Track Severe Weather on mobile